Time;durP1;ratioP1;P1;durP2;ratioP2;P2;SDS_P1;SDS_P2;PMS_P1;PMS_P2;Temp;Humidity;BMP_temperature;BMP_pressure;BME280_temperature;BME280_humidity;BME280_pressure;Samples;Min_cycle;Max_cycle;Signal;HPM_P1;HPM_P2
2022/09/30 00:00:47;;;;;;;1.50;1.00;;;8.40;99.90;;;;;;5052839;28;20128;-67
2022/09/30 00:03:13;;;;;;;1.70;1.15;;;8.40;99.90;;;;;;5072292;28;20045;-67
2022/09/30 00:05:38;;;;;;;1.73;1.23;;;8.30;99.90;;;;;;5055856;28;20389;-66
2022/09/30 00:08:04;;;;;;;1.63;1.23;;;8.20;99.90;;;;;;5053868;28;20037;-67
2022/09/30 00:10:29;;;;;;;1.35;1.10;;;8.20;99.90;;;;;;5055946;28;20056;-67
2022/09/30 00:12:57;;;;;;;1.52;1.13;;;8.20;99.90;;;;;;5055552;28;20045;-67
2022/09/30 00:15:23;;;;;;;3.53;1.70;;;8.20;99.90;;;;;;5072001;28;20504;-67
2022/09/30 00:17:49;;;;;;;3.53;1.70;;;8.30;99.90;;;;;;5054555;28;20037;-67
2022/09/30 00:20:15;;;;;;;3.33;1.70;;;8.30;99.90;;;;;;5069913;28;20033;-66
2022/09/30 00:22:40;;;;;;;4.65;1.60;;;8.20;99.90;;;;;;5055448;28;20040;-66
2022/09/30 00:25:06;;;;;;;4.00;1.90;;;8.30;99.90;;;;;;5052997;28;20493;-67
2022/09/30 00:27:32;;;;;;;2.30;1.33;;;8.30;99.90;;;;;;5038713;28;20499;-67
2022/09/30 00:29:57;;;;;;;2.33;1.33;;;8.30;99.90;;;;;;5053779;28;20099;-67
2022/09/30 00:32:23;;;;;;;3.08;1.58;;;8.20;99.90;;;;;;5035494;28;20037;-67
2022/09/30 00:34:49;;;;;;;2.28;1.45;;;8.20;99.90;;;;;;5035296;28;20560;-67
2022/09/30 00:37:15;;;;;;;2.97;1.67;;;8.20;99.90;;;;;;5039074;28;20047;-67
2022/09/30 00:39:41;;;;;;;2.38;1.60;;;8.20;99.90;;;;;;5054090;28;20048;-67
2022/09/30 00:42:13;;;;;;;2.75;1.77;;;8.10;99.90;;;;;;5054982;28;20428;-66
2022/09/30 00:44:51;;;;;;;5.15;1.90;;;8.00;99.90;;;;;;5038394;28;20048;-67
2022/09/30 00:47:47;;;;;;;3.17;1.70;;;7.90;99.90;;;;;;5050509;28;20073;-67
2022/09/30 00:50:19;;;;;;;3.53;1.65;;;7.90;99.90;;;;;;5052525;28;20510;-66
2022/09/30 00:52:50;;;;;;;2.50;1.40;;;7.90;99.90;;;;;;5055073;28;20071;-67
2022/09/30 00:55:38;;;;;;;1.73;1.33;;;7.80;99.90;;;;;;5071473;28;20040;-67
2022/09/30 00:58:09;;;;;;;1.75;1.40;;;7.60;99.90;;;;;;5069416;28;20481;-67
2022/09/30 01:00:35;;;;;;;2.45;1.60;;;7.60;99.90;;;;;;5039489;28;20079;-67
2022/09/30 01:03:02;;;;;;;2.17;1.42;;;7.60;99.90;;;;;;5052800;28;20043;-66
2022/09/30 01:05:31;;;;;;;2.70;1.70;;;7.60;99.90;;;;;;5054048;28;20073;-66
2022/09/30 01:07:59;;;;;;;3.28;1.63;;;7.70;99.90;;;;;;5037199;28;20037;-67
2022/09/30 01:10:25;;;;;;;2.85;1.67;;;7.70;99.90;;;;;;5054541;28;20029;-66
2022/09/30 01:12:51;;;;;;;2.55;1.40;;;7.80;99.90;;;;;;5053685;28;20474;-66
2022/09/30 01:15:20;;;;;;;2.90;1.70;;;7.90;99.90;;;;;;5054329;28;20425;-66
2022/09/30 01:18:16;;;;;;;3.13;1.80;;;7.80;99.90;;;;;;5053444;28;20049;-66
2022/09/30 01:21:16;;;;;;;4.00;2.10;;;7.70;99.90;;;;;;5054481;28;20493;-67
2022/09/30 01:23:45;;;;;;;4.00;1.98;;;7.70;99.90;;;;;;5053073;28;20139;-66
2022/09/30 01:26:22;;;;;;;2.80;1.50;;;7.70;99.90;;;;;;5054143;28;20041;-66
2022/09/30 01:29:30;;;;;;;1.58;1.08;;;7.70;99.90;;;;;;5034205;28;20156;-66
2022/09/30 01:32:01;;;;;;;1.48;1.00;;;7.80;99.90;;;;;;5048588;28;20045;-66
2022/09/30 01:34:45;;;;;;;1.40;1.00;;;7.80;99.90;;;;;;5053094;28;20087;-67
2022/09/30 01:37:42;;;;;;;1.63;1.05;;;7.80;99.90;;;;;;5053309;28;20045;-66
2022/09/30 01:40:24;;;;;;;1.77;1.13;;;7.80;99.90;;;;;;5053963;28;20072;-66
2022/09/30 01:42:59;;;;;;;1.38;1.02;;;7.70;99.90;;;;;;5049565;28;20068;-66
2022/09/30 01:45:25;;;;;;;1.60;1.10;;;7.60;99.90;;;;;;5029240;28;20044;-67
2022/09/30 01:48:02;;;;;;;4.38;1.30;;;7.50;99.90;;;;;;5052076;28;20171;-67
2022/09/30 01:50:53;;;;;;;4.13;1.48;;;7.30;99.90;;;;;;5051659;28;20041;-66
2022/09/30 01:53:45;;;;;;;2.20;1.40;;;7.00;99.90;;;;;;5053863;28;20393;-66
2022/09/30 01:56:17;;;;;;;3.22;1.85;;;7.10;99.90;;;;;;5052775;28;20091;-66
2022/09/30 01:59:00;;;;;;;5.53;1.80;;;7.20;99.90;;;;;;5052677;28;20364;-66
2022/09/30 02:01:34;;;;;;;3.60;1.75;;;7.20;99.90;;;;;;5068630;28;20497;-66
2022/09/30 02:04:11;;;;;;;2.45;1.50;;;7.20;99.90;;;;;;5052946;28;20061;-67
2022/09/30 02:06:41;;;;;;;6.93;1.67;;;7.10;99.90;;;;;;5052431;28;20033;-66
2022/09/30 02:09:21;;;;;;;5.13;1.80;;;7.10;99.90;;;;;;5053673;28;20496;-66
2022/09/30 02:11:46;;;;;;;2.30;1.50;;;7.00;99.90;;;;;;5052564;28;20041;-67
2022/09/30 02:14:24;;;;;;;2.38;1.52;;;7.00;99.90;;;;;;5069806;28;20436;-67
2022/09/30 02:17:14;;;;;;;3.17;1.30;;;7.10;99.90;;;;;;5052094;28;20033;-66
2022/09/30 02:19:48;;;;;;;1.27;1.10;;;7.10;99.90;;;;;;5035775;28;20028;-66
2022/09/30 02:22:22;;;;;;;2.88;1.60;;;7.20;99.90;;;;;;5053117;28;20071;-67
2022/09/30 02:24:55;;;;;;;2.38;1.50;;;7.20;99.90;;;;;;5051957;28;20066;-66
2022/09/30 02:27:32;;;;;;;1.80;1.40;;;7.20;99.90;;;;;;5052287;28;20044;-66
2022/09/30 02:30:02;;;;;;;3.45;1.67;;;7.10;99.90;;;;;;5052157;28;20068;-66
2022/09/30 02:32:38;;;;;;;2.95;2.03;;;7.10;99.90;;;;;;5036365;28;20037;-67
2022/09/30 02:35:12;;;;;;;2.90;1.80;;;7.00;99.90;;;;;;5036123;28;20049;-67
2022/09/30 02:37:43;;;;;;;4.10;2.08;;;7.10;99.90;;;;;;5051769;28;20044;-66
2022/09/30 02:40:15;;;;;;;4.78;2.42;;;7.10;99.90;;;;;;5052898;28;20044;-66
2022/09/30 02:42:44;;;;;;;3.55;1.90;;;7.10;99.90;;;;;;5052886;28;20040;-67
2022/09/30 02:45:15;;;;;;;3.88;1.90;;;7.10;99.90;;;;;;5068421;28;20131;-67
2022/09/30 02:48:13;;;;;;;3.00;1.90;;;7.00;99.90;;;;;;5051639;28;20488;-66
2022/09/30 02:50:49;;;;;;;3.95;2.20;;;7.00;99.90;;;;;;5052682;28;20037;-67
2022/09/30 02:53:25;;;;;;;3.85;1.80;;;7.10;99.90;;;;;;5052014;28;20409;-67
2022/09/30 02:56:06;;;;;;;4.00;2.25;;;7.00;99.90;;;;;;5051587;28;20043;-66
2022/09/30 02:58:35;;;;;;;4.55;2.30;;;7.00;99.90;;;;;;5068331;28;20052;-66
2022/09/30 03:01:00;;;;;;;3.88;1.92;;;7.00;99.90;;;;;;5051396;28;20083;-67
2022/09/30 03:03:44;;;;;;;4.43;1.92;;;7.00;99.90;;;;;;5035720;28;20053;-67
2022/09/30 03:06:11;;;;;;;2.40;1.73;;;6.90;99.90;;;;;;5052518;28;20450;-67
2022/09/30 03:08:37;;;;;;;2.40;1.70;;;6.80;99.90;;;;;;5033895;28;20040;-67
2022/09/30 03:11:03;;;;;;;3.28;1.80;;;6.80;99.90;;;;;;5052241;28;20039;-67
2022/09/30 03:13:31;;;;;;;3.40;1.80;;;6.90;99.90;;;;;;5052207;28;20048;-67
2022/09/30 03:16:16;;;;;;;1.90;1.30;;;6.80;99.90;;;;;;5051306;28;20057;-67
2022/09/30 03:18:53;;;;;;;1.45;1.20;;;6.80;99.90;;;;;;5067881;28;20045;-67
2022/09/30 03:21:42;;;;;;;4.05;1.17;;;6.90;99.90;;;;;;5052078;28;20040;-67
2022/09/30 03:24:32;;;;;;;1.52;0.90;;;6.90;99.90;;;;;;5051234;28;20045;-67
2022/09/30 03:27:03;;;;;;;2.53;1.20;;;6.90;99.90;;;;;;5051502;28;20037;-66
2022/09/30 03:29:39;;;;;;;1.65;1.10;;;6.90;99.90;;;;;;5051406;28;20458;-66
2022/09/30 03:32:38;;;;;;;38.25;34.83;;;6.90;99.90;;;;;;5051372;28;20037;-66
2022/09/30 03:35:16;;;;;;;3.13;2.25;;;6.90;99.90;;;;;;5050428;28;20047;-67
2022/09/30 03:37:45;;;;;;;3.28;1.80;;;6.80;99.90;;;;;;5051168;28;20045;-66
2022/09/30 03:40:56;;;;;;;3.17;2.15;;;6.70;99.90;;;;;;5033081;28;20033;-68
2022/09/30 03:43:36;;;;;;;3.00;2.20;;;6.60;99.90;;;;;;5036328;28;20069;-66
2022/09/30 03:46:13;;;;;;;2.78;1.73;;;6.50;99.90;;;;;;5051745;28;20049;-66
2022/09/30 03:48:40;;;;;;;1.98;1.40;;;6.60;99.90;;;;;;5049373;28;20116;-66
2022/09/30 03:51:07;;;;;;;2.75;1.67;;;6.70;99.90;;;;;;5051780;28;20041;-66
2022/09/30 03:53:41;;;;;;;3.97;1.70;;;6.80;99.90;;;;;;5035232;28;20040;-66
2022/09/30 03:56:06;;;;;;;2.92;1.63;;;6.80;99.90;;;;;;5068352;28;20052;-66
2022/09/30 03:58:33;;;;;;;3.80;1.80;;;6.70;99.90;;;;;;5050952;28;20033;-66
2022/09/30 04:00:59;;;;;;;3.28;1.83;;;6.60;99.90;;;;;;5051109;28;20041;-67
2022/09/30 04:03:26;;;;;;;5.68;2.08;;;6.60;99.90;;;;;;5051536;28;20059;-67
2022/09/30 04:05:52;;;;;;;3.15;1.75;;;6.60;99.90;;;;;;5035024;28;20029;-67
2022/09/30 04:08:18;;;;;;;2.60;1.55;;;6.60;99.90;;;;;;5049768;28;20087;-67
2022/09/30 04:10:44;;;;;;;8.02;1.90;;;6.60;99.90;;;;;;5050070;28;20554;-66
2022/09/30 04:13:10;;;;;;;3.70;1.73;;;6.60;99.90;;;;;;5050847;28;20079;-66
2022/09/30 04:15:36;;;;;;;3.53;1.90;;;6.50;99.90;;;;;;5051347;28;20136;-66
2022/09/30 04:18:03;;;;;;;2.97;1.65;;;6.60;99.90;;;;;;5051006;28;20120;-67
2022/09/30 04:20:30;;;;;;;4.30;1.65;;;6.60;99.90;;;;;;5050735;28;20485;-66
2022/09/30 04:23:00;;;;;;;3.30;1.90;;;6.50;99.90;;;;;;5050445;28;20095;-67
2022/09/30 04:25:26;;;;;;;2.92;1.70;;;6.50;99.90;;;;;;5051698;28;20374;-66
2022/09/30 04:27:53;;;;;;;3.25;1.85;;;6.50;99.90;;;;;;5050675;28;20032;-67
2022/09/30 04:30:18;;;;;;;3.10;1.67;;;6.60;99.90;;;;;;5050616;28;20044;-66
2022/09/30 04:32:44;;;;;;;10.05;1.73;;;6.60;99.90;;;;;;5051645;28;20132;-66
2022/09/30 04:35:13;;;;;;;2.00;1.27;;;6.50;99.90;;;;;;5051406;28;20033;-66
2022/09/30 04:37:43;;;;;;;2.40;1.50;;;6.50;99.90;;;;;;5051000;28;20048;-66
2022/09/30 04:40:10;;;;;;;14.15;2.53;;;6.50;99.90;;;;;;5052473;28;20045;-66
2022/09/30 04:42:36;;;;;;;2.30;1.60;;;6.50;99.90;;;;;;5054230;28;20067;-66
2022/09/30 04:45:02;;;;;;;1.60;1.27;;;6.50;99.90;;;;;;5055245;28;20099;-66
2022/09/30 04:47:28;;;;;;;2.55;1.65;;;6.50;99.90;;;;;;5054215;28;20068;-66
2022/09/30 04:49:55;;;;;;;2.25;1.60;;;6.60;99.90;;;;;;5070737;28;20070;-66
2022/09/30 04:52:20;;;;;;;2.35;1.48;;;6.50;99.90;;;;;;5055204;28;20475;-66
2022/09/30 04:54:46;;;;;;;1.50;1.20;;;6.50;99.90;;;;;;5053099;28;20080;-66
2022/09/30 04:57:12;;;;;;;1.38;1.20;;;6.50;99.90;;;;;;5018564;28;20111;-66
2022/09/30 04:59:38;;;;;;;1.35;1.13;;;6.60;99.90;;;;;;5034787;28;20087;-67
2022/09/30 05:02:04;;;;;;;2.75;1.35;;;6.50;99.90;;;;;;5038971;28;20485;-66
2022/09/30 05:04:32;;;;;;;4.32;1.50;;;6.40;99.90;;;;;;5054700;28;20041;-66
2022/09/30 05:06:59;;;;;;;1.63;1.30;;;6.40;99.90;;;;;;5053622;28;20045;-66
2022/09/30 05:09:24;;;;;;;2.03;1.50;;;6.30;99.90;;;;;;5054854;28;20052;-66
2022/09/30 05:11:50;;;;;;;1.85;1.20;;;6.30;99.90;;;;;;5052671;28;20045;-66
2022/09/30 05:14:16;;;;;;;1.70;1.45;;;6.30;99.90;;;;;;5037693;28;20037;-66
2022/09/30 05:16:42;;;;;;;2.00;1.55;;;6.20;99.90;;;;;;5053497;28;20107;-66
2022/09/30 05:19:07;;;;;;;3.90;1.65;;;6.20;99.90;;;;;;5054352;28;20079;-66
2022/09/30 05:21:34;;;;;;;2.72;1.75;;;6.20;99.90;;;;;;5052442;28;20088;-66
2022/09/30 05:24:00;;;;;;;2.63;1.70;;;6.30;99.90;;;;;;5053559;28;20045;-66
2022/09/30 05:26:26;;;;;;;1.80;1.50;;;6.40;99.90;;;;;;5053039;28;20029;-66
2022/09/30 05:28:51;;;;;;;2.47;1.40;;;6.40;99.90;;;;;;5051649;28;20086;-66
2022/09/30 05:31:19;;;;;;;2.03;1.17;;;6.40;99.90;;;;;;5033321;28;20112;-66
2022/09/30 05:33:45;;;;;;;2.30;1.50;;;6.40;99.90;;;;;;5064817;28;20086;-66
2022/09/30 05:36:14;;;;;;;4.35;1.40;;;6.50;99.90;;;;;;5041467;28;20095;-66
2022/09/30 05:38:39;;;;;;;1.55;1.30;;;6.30;99.90;;;;;;5038289;28;20149;-66
2022/09/30 05:41:11;;;;;;;2.17;1.50;;;6.30;99.90;;;;;;5053248;28;20179;-66
2022/09/30 05:43:38;;;;;;;2.03;1.50;;;6.30;99.90;;;;;;5053168;28;20045;-66
2022/09/30 05:46:04;;;;;;;2.75;1.30;;;6.30;99.90;;;;;;5052752;28;20493;-66
2022/09/30 05:48:30;;;;;;;1.60;1.50;;;6.30;99.90;;;;;;5027657;28;20043;-67
2022/09/30 05:50:57;;;;;;;2.22;1.60;;;6.30;99.90;;;;;;5039517;28;20397;-66
2022/09/30 05:53:23;;;;;;;3.05;1.60;;;6.40;99.90;;;;;;5049097;28;20041;-66
2022/09/30 05:55:49;;;;;;;2.88;1.50;;;6.30;99.90;;;;;;5052221;28;20048;-66
2022/09/30 05:58:15;;;;;;;2.72;1.45;;;6.30;99.90;;;;;;5049907;28;20037;-66
2022/09/30 06:00:43;;;;;;;1.65;1.40;;;6.30;99.90;;;;;;5037776;28;20112;-66
2022/09/30 06:03:09;;;;;;;2.95;1.80;;;6.30;99.90;;;;;;5045564;28;20044;-66
2022/09/30 06:05:34;;;;;;;4.25;2.28;;;6.30;99.90;;;;;;5035421;28;20064;-66
2022/09/30 06:08:00;;;;;;;4.10;2.35;;;6.40;99.90;;;;;;5037616;28;20504;-66
2022/09/30 06:10:26;;;;;;;3.30;2.20;;;6.40;99.90;;;;;;5052991;28;20049;-66
2022/09/30 06:12:51;;;;;;;3.20;2.10;;;6.30;99.90;;;;;;5035130;28;20047;-66
2022/09/30 06:15:17;;;;;;;3.13;2.08;;;6.30;99.90;;;;;;5052338;28;20064;-66
2022/09/30 06:17:42;;;;;;;3.10;2.15;;;6.40;99.90;;;;;;5045366;28;20440;-66
2022/09/30 06:20:11;;;;;;;2.72;1.90;;;6.40;99.90;;;;;;5039071;28;20040;-66
2022/09/30 06:22:37;;;;;;;3.47;2.22;;;6.40;99.90;;;;;;5053619;28;20041;-66
2022/09/30 06:25:04;;;;;;;3.95;2.45;;;6.40;99.90;;;;;;5052789;28;20485;-66
2022/09/30 06:27:32;;;;;;;3.15;2.30;;;6.50;99.90;;;;;;5051773;28;20397;-66
2022/09/30 06:29:58;;;;;;;3.08;2.30;;;6.50;99.90;;;;;;5068230;28;20525;-67
2022/09/30 06:32:25;;;;;;;3.70;2.53;;;6.50;99.90;;;;;;5050226;28;20044;-66
2022/09/30 06:34:54;;;;;;;2.90;2.15;;;6.50;99.90;;;;;;5046934;28;20064;-67
2022/09/30 06:37:21;;;;;;;3.47;2.20;;;6.50;99.90;;;;;;5033881;28;20506;-68
2022/09/30 06:39:47;;;;;;;3.97;2.67;;;6.50;99.90;;;;;;5035754;28;20112;-67
2022/09/30 06:42:13;;;;;;;4.13;2.80;;;6.50;99.90;;;;;;5039940;28;20045;-67
2022/09/30 06:44:38;;;;;;;5.05;2.90;;;6.60;99.90;;;;;;5043849;28;20033;-66
2022/09/30 06:47:04;;;;;;;4.72;3.17;;;6.60;99.90;;;;;;5049096;28;20044;-66
2022/09/30 06:49:30;;;;;;;27.75;3.60;;;6.60;99.90;;;;;;5051981;28;20037;-66
2022/09/30 06:51:56;;;;;;;5.80;3.45;;;6.60;99.90;;;;;;5050826;28;20511;-66
2022/09/30 06:54:22;;;;;;;5.35;3.45;;;6.70;99.90;;;;;;5033105;28;20033;-66
2022/09/30 06:56:47;;;;;;;6.25;3.70;;;6.80;99.90;;;;;;5050256;28;20041;-67
2022/09/30 06:59:15;;;;;;;5.68;3.55;;;6.90;99.90;;;;;;5047406;28;20045;-66
2022/09/30 07:01:43;;;;;;;5.88;3.20;;;6.90;99.90;;;;;;5051452;28;20482;-67
2022/09/30 07:04:11;;;;;;;6.13;3.67;;;6.90;99.90;;;;;;5048659;28;20044;-67
2022/09/30 07:06:38;;;;;;;5.63;3.55;;;6.90;99.90;;;;;;5050040;28;20036;-66
2022/09/30 07:09:05;;;;;;;6.65;3.55;;;6.90;99.90;;;;;;5051926;28;20120;-67
2022/09/30 07:11:31;;;;;;;5.35;3.63;;;6.90;99.90;;;;;;5049029;28;20139;-67
2022/09/30 07:13:56;;;;;;;5.45;3.53;;;7.00;99.90;;;;;;5039559;28;20541;-67
2022/09/30 07:16:24;;;;;;;5.32;3.40;;;7.00;99.90;;;;;;5032888;28;20064;-66
2022/09/30 07:18:50;;;;;;;5.80;3.90;;;7.00;99.90;;;;;;5046780;28;20485;-67
2022/09/30 07:21:16;;;;;;;6.07;3.70;;;7.10;99.90;;;;;;5049066;28;20124;-66
2022/09/30 07:23:46;;;;;;;6.35;4.10;;;7.20;99.90;;;;;;5050571;28;20102;-66
2022/09/30 07:26:14;;;;;;;7.22;5.00;;;7.20;99.90;;;;;;5031824;28;20041;-67
2022/09/30 07:28:40;;;;;;;7.90;5.13;;;7.20;99.90;;;;;;5051513;28;20036;-67
2022/09/30 07:31:37;;;;;;;5.03;3.10;;;7.30;99.90;;;;;;5050303;28;20036;-74
2022/09/30 07:34:05;;;;;;;8.88;4.75;;;7.40;99.90;;;;;;5029289;28;20510;-78
2022/09/30 07:36:31;;;;;;;9.68;6.07;;;7.50;99.90;;;;;;5032533;28;20111;-68
2022/09/30 07:38:57;;;;;;;8.50;6.30;;;7.70;99.90;;;;;;5049561;28;20206;-67
2022/09/30 07:41:27;;;;;;;10.40;6.88;;;7.80;99.90;;;;;;5047883;28;20485;-68
2022/09/30 07:43:55;;;;;;;11.80;7.72;;;7.90;99.90;;;;;;5049267;28;20049;-68
2022/09/30 07:46:29;;;;;;;11.52;8.63;;;8.00;99.90;;;;;;5049715;28;20397;-68
2022/09/30 07:48:59;;;;;;;14.43;10.68;;;8.20;99.90;;;;;;5050289;28;20120;-68
2022/09/30 07:51:30;;;;;;;16.02;10.27;;;8.30;99.90;;;;;;5034548;28;20041;-68
2022/09/30 07:53:58;;;;;;;15.50;10.90;;;8.40;99.90;;;;;;5049057;28;20037;-68
2022/09/30 07:56:25;;;;;;;15.32;10.73;;;8.60;99.90;;;;;;5049095;28;20037;-68
2022/09/30 07:58:59;;;;;;;15.57;11.75;;;8.80;99.90;;;;;;5034131;28;20119;-68
2022/09/30 08:01:30;;;;;;;15.38;10.90;;;8.80;99.90;;;;;;5050208;28;20130;-68
2022/09/30 08:04:01;;;;;;;15.20;11.40;;;8.90;99.90;;;;;;5049891;28;20045;-68
2022/09/30 08:06:28;;;;;;;13.27;9.35;;;9.10;99.90;;;;;;5049195;28;20119;-68
2022/09/30 08:08:56;;;;;;;12.98;9.80;;;9.20;99.90;;;;;;5051684;28;20056;-68
2022/09/30 08:11:23;;;;;;;16.23;9.60;;;9.30;99.90;;;;;;5047212;28;20033;-68
2022/09/30 08:13:55;;;;;;;11.90;9.18;;;9.20;99.90;;;;;;5051131;28;20441;-68
2022/09/30 08:16:23;;;;;;;12.52;8.25;;;9.20;99.90;;;;;;5053423;28;20059;-68
2022/09/30 08:18:56;;;;;;;12.30;8.82;;;9.30;99.90;;;;;;5054848;28;20056;-68
2022/09/30 08:21:22;;;;;;;11.57;8.20;;;9.30;99.90;;;;;;5047667;28;20493;-68
2022/09/30 08:23:48;;;;;;;12.57;8.43;;;9.40;99.90;;;;;;5053803;28;20052;-68
2022/09/30 08:26:16;;;;;;;11.82;8.15;;;9.40;99.90;;;;;;5054913;28;20036;-68
2022/09/30 08:28:45;;;;;;;14.00;8.70;;;9.50;99.90;;;;;;5054629;28;20037;-68
2022/09/30 08:31:19;;;;;;;12.43;8.80;;;9.50;99.90;;;;;;5055372;28;20048;-68
2022/09/30 08:33:45;;;;;;;13.70;9.32;;;9.60;99.90;;;;;;5054821;28;20044;-68
2022/09/30 08:36:17;;;;;;;14.73;8.82;;;9.70;99.90;;;;;;5054496;28;20041;-68
2022/09/30 08:38:43;;;;;;;18.48;8.73;;;9.70;99.90;;;;;;5054583;28;20438;-68
2022/09/30 08:41:28;;;;;;;15.70;9.38;;;9.70;99.90;;;;;;5054538;28;20083;-68
2022/09/30 08:44:24;;;;;;;15.27;9.40;;;9.80;99.90;;;;;;5054486;28;20370;-68
2022/09/30 08:47:47;;;;;;;15.48;9.45;;;9.80;99.90;;;;;;5054298;28;20053;-68
2022/09/30 08:50:27;;;;;;;14.10;8.88;;;9.90;99.90;;;;;;5036408;28;20052;-68
2022/09/30 08:52:58;;;;;;;13.32;9.30;;;9.90;99.90;;;;;;5054231;28;20127;-68
2022/09/30 08:55:28;;;;;;;14.23;9.18;;;10.00;99.90;;;;;;5054335;28;20036;-68
2022/09/30 08:57:56;;;;;;;13.85;9.07;;;10.10;99.90;;;;;;5054518;28;20037;-68
2022/09/30 09:00:22;;;;;;;13.15;9.35;;;10.20;99.90;;;;;;5052472;28;20565;-68
2022/09/30 09:02:53;;;;;;;14.07;9.65;;;10.20;99.90;;;;;;5037379;28;20127;-68
2022/09/30 09:05:46;;;;;;;15.07;9.30;;;10.40;99.90;;;;;;5038266;28;20041;-68
2022/09/30 09:08:40;;;;;;;13.55;9.13;;;10.60;99.90;;;;;;5051998;28;20041;-68
2022/09/30 09:11:20;;;;;;;13.27;8.85;;;10.60;99.90;;;;;;5062335;28;20268;-68
2022/09/30 09:14:12;;;;;;;14.88;10.23;;;10.60;99.90;;;;;;5054012;28;20048;-68
2022/09/30 09:16:49;;;;;;;17.70;9.95;;;10.60;99.90;;;;;;5035785;28;20041;-68
2022/09/30 09:19:22;;;;;;;14.23;10.20;;;10.70;99.90;;;;;;5054348;28;20047;-68
2022/09/30 09:22:01;;;;;;;15.82;9.95;;;10.70;99.90;;;;;;5049099;28;20037;-69
2022/09/30 09:24:47;;;;;;;16.42;11.02;;;10.90;99.90;;;;;;5040813;28;20051;-68
2022/09/30 09:27:34;;;;;;;15.60;10.65;;;10.90;99.90;;;;;;5054200;28;20037;-69
2022/09/30 09:30:10;;;;;;;17.73;11.80;;;11.10;99.90;;;;;;5053081;28;20405;-69
2022/09/30 09:32:36;;;;;;;15.85;10.93;;;11.10;99.90;;;;;;5048931;28;20040;-69
2022/09/30 09:35:43;;;;;;;19.00;12.15;;;11.10;99.90;;;;;;5052779;28;20041;-69
2022/09/30 09:38:26;;;;;;;18.35;12.13;;;11.20;99.90;;;;;;4995086;28;20124;-68
2022/09/30 09:40:58;;;;;;;18.42;12.90;;;11.30;99.90;;;;;;5050457;28;20099;-68
2022/09/30 09:43:34;;;;;;;19.08;12.65;;;11.40;99.90;;;;;;5053210;28;20079;-68
2022/09/30 09:46:19;;;;;;;18.00;13.40;;;11.60;99.90;;;;;;5053073;28;20037;-68
2022/09/30 09:48:45;;;;;;;20.92;13.98;;;11.70;99.90;;;;;;5053981;28;20072;-68
2022/09/30 09:51:27;;;;;;;18.35;12.60;;;11.80;99.90;;;;;;5053153;28;20531;-68
2022/09/30 09:53:57;;;;;;;17.35;11.80;;;12.00;99.90;;;;;;5053300;28;20040;-69
2022/09/30 09:56:28;;;;;;;14.98;10.85;;;12.20;99.90;;;;;;5036562;28;20045;-69
2022/09/30 09:59:14;;;;;;;18.23;12.15;;;12.30;99.90;;;;;;5036801;28;20611;-69
2022/09/30 10:01:45;;;;;;;15.52;10.77;;;12.40;99.90;;;;;;5035929;28;20037;-69
2022/09/30 10:04:14;;;;;;;15.13;11.00;;;12.60;99.90;;;;;;5035419;28;20033;-69
2022/09/30 10:06:50;;;;;;;15.00;10.43;;;12.60;99.90;;;;;;5036675;28;20037;-69
2022/09/30 10:09:31;;;;;;;14.35;10.25;;;12.70;99.90;;;;;;5036459;28;20472;-68
2022/09/30 10:12:05;;;;;;;13.07;9.25;;;12.80;99.90;;;;;;5035925;28;20048;-69
2022/09/30 10:14:50;;;;;;;13.43;9.32;;;12.90;99.90;;;;;;5036742;28;20445;-69
2022/09/30 10:17:28;;;;;;;10.77;6.55;;;13.00;99.90;;;;;;5052767;28;20504;-69
2022/09/30 10:20:00;;;;;;;11.25;5.95;;;13.10;99.90;;;;;;5052367;28;20493;-69
2022/09/30 10:22:29;;;;;;;9.05;4.93;;;13.10;99.90;;;;;;5051899;28;20066;-69
2022/09/30 10:25:27;;;;;;;7.90;4.45;;;13.10;99.90;;;;;;5036237;28;20493;-69
2022/09/30 10:28:02;;;;;;;8.98;5.15;;;13.20;99.90;;;;;;5010756;28;20046;-69
2022/09/30 10:30:48;;;;;;;8.38;4.20;;;13.30;99.90;;;;;;5043417;28;20041;-69
2022/09/30 10:33:22;;;;;;;7.18;3.90;;;13.40;99.90;;;;;;5052415;28;20045;-69
2022/09/30 10:35:53;;;;;;;7.28;2.80;;;13.50;99.90;;;;;;5052360;28;20037;-69
2022/09/30 10:38:20;;;;;;;4.85;2.30;;;13.60;99.90;;;;;;5052220;28;20051;-69
2022/09/30 10:40:50;;;;;;;4.53;2.30;;;13.60;99.90;;;;;;5052215;28;20079;-69
2022/09/30 10:43:45;;;;;;;4.97;2.30;;;13.70;99.90;;;;;;5052538;28;20055;-69
2022/09/30 10:46:10;;;;;;;4.95;2.50;;;13.60;99.90;;;;;;5049975;28;20048;-69
2022/09/30 10:48:38;;;;;;;3.83;2.25;;;13.60;99.90;;;;;;5035742;28;20428;-69
2022/09/30 10:51:15;;;;;;;3.47;1.95;;;13.70;99.90;;;;;;5052404;28;20155;-69
2022/09/30 10:53:42;;;;;;;4.47;2.00;;;13.70;99.90;;;;;;5035029;28;20128;-69
2022/09/30 10:56:08;;;;;;;4.40;2.20;;;13.80;99.90;;;;;;5049142;28;20038;-69
2022/09/30 10:58:46;;;;;;;5.43;2.47;;;13.90;99.90;;;;;;5052096;28;20044;-69
2022/09/30 11:01:31;;;;;;;4.68;2.30;;;14.00;99.90;;;;;;5035306;28;20037;-69
2022/09/30 11:04:02;;;;;;;4.60;2.30;;;14.00;99.90;;;;;;5051648;28;20584;-69
2022/09/30 11:06:31;;;;;;;4.40;2.80;;;14.00;99.90;;;;;;5052310;28;20124;-70
2022/09/30 11:09:17;;;;;;;5.25;2.50;;;14.00;99.90;;;;;;5051877;28;20040;-70
2022/09/30 11:11:55;;;;;;;5.65;2.80;;;14.10;99.90;;;;;;5051315;28;20043;-70
2022/09/30 11:14:34;;;;;;;6.82;3.28;;;14.10;99.90;;;;;;5050075;28;20120;-69
2022/09/30 11:17:24;;;;;;;6.75;3.50;;;14.10;99.90;;;;;;5045715;28;20048;-69
2022/09/30 11:20:08;;;;;;;7.50;3.90;;;14.20;99.90;;;;;;5050564;28;20036;-69
2022/09/30 11:22:56;;;;;;;5.72;3.55;;;14.30;99.90;;;;;;5067292;28;20167;-69
2022/09/30 11:25:46;;;;;;;6.05;3.30;;;14.40;99.90;;;;;;5067568;28;20430;-69
2022/09/30 11:28:34;;;;;;;5.97;3.30;;;14.40;99.90;;;;;;5047758;28;20037;-69
2022/09/30 11:31:14;;;;;;;6.35;3.47;;;14.50;99.90;;;;;;5050244;28;20037;-69
2022/09/30 11:33:57;;;;;;;7.50;3.83;;;14.50;99.90;;;;;;5034804;28;20056;-69
2022/09/30 11:36:34;;;;;;;5.95;3.10;;;14.50;99.90;;;;;;5050919;28;20051;-69
2022/09/30 11:39:23;;;;;;;5.50;2.72;;;14.50;99.90;;;;;;5049947;28;20040;-69
2022/09/30 11:42:57;;;;;;;6.38;3.20;;;14.60;99.90;;;;;;5049136;28;20067;-69
2022/09/30 11:45:25;;;;;;;5.30;2.83;;;14.60;99.90;;;;;;5029185;28;20568;-69
2022/09/30 11:48:06;;;;;;;4.63;2.30;;;14.50;99.90;;;;;;5041750;28;20093;-69
2022/09/30 11:50:47;;;;;;;5.32;1.98;;;14.60;99.90;;;;;;5034338;28;20116;-70
2022/09/30 11:53:23;;;;;;;3.92;2.22;;;14.70;99.90;;;;;;5031548;28;20041;-69
2022/09/30 11:56:20;;;;;;;4.78;2.10;;;14.70;99.90;;;;;;5044225;28;20489;-69
2022/09/30 11:58:50;;;;;;;5.00;2.60;;;14.70;99.90;;;;;;5051991;28;20426;-69
2022/09/30 12:01:42;;;;;;;5.80;2.53;;;14.70;99.90;;;;;;5033014;28;20056;-70
2022/09/30 12:04:32;;;;;;;4.45;2.58;;;14.70;99.90;;;;;;5034672;28;20401;-69
2022/09/30 12:07:16;;;;;;;7.63;2.55;;;14.70;99.90;;;;;;5045534;28;20033;-69
2022/09/30 12:09:57;;;;;;;5.32;2.58;;;14.70;99.90;;;;;;5050580;28;20029;-69
2022/09/30 12:12:23;;;;;;;4.90;2.30;;;14.80;99.90;;;;;;5048669;28;20056;-69
2022/09/30 12:15:00;;;;;;;3.88;2.40;;;14.80;99.90;;;;;;5049443;28;20048;-69
2022/09/30 12:17:32;;;;;;;4.90;2.60;;;14.90;99.90;;;;;;5047501;28;20056;-69
2022/09/30 12:20:04;;;;;;;5.57;2.50;;;14.80;99.90;;;;;;5046828;28;20519;-69
2022/09/30 12:22:37;;;;;;;5.72;2.80;;;14.90;99.90;;;;;;5033277;28;20044;-69
2022/09/30 12:25:25;;;;;;;4.72;2.38;;;14.80;99.90;;;;;;5048191;28;20044;-69
2022/09/30 12:31:40;;;;;;;6.05;2.45;;;15.00;99.90;;;;;;5050714;28;20048;-69
2022/09/30 12:34:37;;;;;;;4.47;2.20;;;15.10;99.90;;;;;;5047606;28;20246;-69
2022/09/30 12:37:17;;;;;;;4.55;2.50;;;15.00;99.90;;;;;;5063708;28;20481;-69
2022/09/30 12:39:43;;;;;;;3.42;2.30;;;15.10;99.90;;;;;;5050613;28;20047;-70
2022/09/30 12:42:17;;;;;;;5.68;2.25;;;15.10;99.90;;;;;;5033230;28;20128;-69
2022/09/30 12:45:14;;;;;;;5.68;3.10;;;15.10;99.90;;;;;;5050688;28;20047;-70
2022/09/30 12:48:07;;;;;;;5.93;2.78;;;15.20;99.90;;;;;;5014614;28;20046;-69
2022/09/30 12:50:48;;;;;;;4.97;2.55;;;15.20;99.90;;;;;;5046879;28;20044;-70
2022/09/30 12:53:34;;;;;;;6.07;3.00;;;15.20;99.90;;;;;;5049162;28;20041;-70
2022/09/30 12:56:14;;;;;;;7.20;3.80;;;15.20;99.90;;;;;;5027769;28;20040;-69
2022/09/30 12:58:47;;;;;;;5.82;3.25;;;15.30;99.90;;;;;;5015285;28;20125;-69
2022/09/30 13:01:21;;;;;;;8.52;3.88;;;15.20;99.90;;;;;;5068663;28;20044;-70
2022/09/30 13:03:56;;;;;;;7.22;4.38;;;15.20;99.90;;;;;;5036934;28;20135;-70
2022/09/30 13:06:22;;;;;;;9.43;4.40;;;15.20;99.90;;;;;;5066316;28;20052;-70
2022/09/30 13:09:17;;;;;;;7.32;4.63;;;15.20;99.90;;;;;;5033661;28;20030;-70
2022/09/30 13:12:11;;;;;;;8.15;5.30;;;15.20;99.90;;;;;;5017711;28;20429;-70
2022/09/30 13:14:42;;;;;;;7.30;4.32;;;15.10;99.90;;;;;;5030324;28;20802;-69
2022/09/30 13:17:08;;;;;;;7.43;3.90;;;15.00;99.90;;;;;;5065304;28;20084;-69
2022/09/30 13:19:45;;;;;;;7.13;4.40;;;15.10;99.90;;;;;;5033121;28;20810;-70
2022/09/30 13:22:17;;;;;;;8.52;4.55;;;15.10;99.90;;;;;;5049784;28;20048;-70
2022/09/30 13:25:01;;;;;;;8.20;5.50;;;15.10;99.90;;;;;;5048576;28;20036;-70
2022/09/30 13:27:46;;;;;;;9.43;5.28;;;15.20;99.90;;;;;;5051766;28;20497;-70